CHH7786 ZHHH-ZBYN
Flight info
| Callsign | CHH7786 |
|---|---|
| Flight time | 1h 9m |
| Altitude | 32100 |
| Route | BENBI1E BENBI W56 IGMIG W128 KAMDA W129 CGO B208 ANPIG ANPIG8Z |
| Aircraft | A333/H-SDE3GHIJ2J3J5M1RVWXY/LB2D1 |
Departure
| Time | 2026-04-21 10:29 |
|---|---|
| Airport | Wuhan Tianhe International Airport (ZHHH) |
Arrival
| Time | 2026-04-21 11:38 |
|---|---|
| Airport | Taiyuan Wusu International Airport (ZBYN) |
| Time | Latitude | Longitude | Altitude | Speed | Heading |
|---|---|---|---|---|---|
| 2026-04-21 10:10 | 30.77765 | 114.20715 | 111 ft | 0 kts | 131° |
| 2026-04-21 10:19 | 30.77780 | 114.20695 | 109 ft | 4 kts | 131° |
| 2026-04-21 10:19 | 30.77794 | 114.20677 | 109 ft | 4 kts | 126° |
| 2026-04-21 10:19 | 30.77809 | 114.20651 | 109 ft | 4 kts | 124° |
| 2026-04-21 10:20 | 30.77823 | 114.20632 | 109 ft | 4 kts | 182° |
| 2026-04-21 10:20 | 30.77836 | 114.20642 | 109 ft | 4 kts | 221° |
| 2026-04-21 10:20 | 30.77849 | 114.20655 | 109 ft | 0 kts | 221° |
| 2026-04-21 10:23 | 30.77838 | 114.20644 | 109 ft | 4 kts | 221° |
| 2026-04-21 10:23 | 30.77823 | 114.20628 | 109 ft | 5 kts | 221° |
| 2026-04-21 10:23 | 30.77788 | 114.20592 | 109 ft | 8 kts | 221° |
| 2026-04-21 10:23 | 30.77765 | 114.20519 | 110 ft | 8 kts | 288° |
| 2026-04-21 10:24 | 30.77767 | 114.20475 | 110 ft | 9 kts | 254° |
| 2026-04-21 10:24 | 30.77723 | 114.20418 | 111 ft | 11 kts | 222° |
| 2026-04-21 10:24 | 30.77638 | 114.20330 | 108 ft | 14 kts | 221° |
| 2026-04-21 10:24 | 30.77587 | 114.20277 | 110 ft | 15 kts | 221° |
| 2026-04-21 10:25 | 30.77503 | 114.20192 | 111 ft | 17 kts | 221° |
| 2026-04-21 10:25 | 30.77408 | 114.20095 | 110 ft | 19 kts | 221° |
| 2026-04-21 10:25 | 30.77313 | 114.19997 | 108 ft | 17 kts | 221° |
| 2026-04-21 10:25 | 30.77221 | 114.19904 | 107 ft | 19 kts | 221° |
| 2026-04-21 10:26 | 30.77136 | 114.19814 | 109 ft | 9 kts | 232° |
| 2026-04-21 10:26 | 30.77139 | 114.19762 | 107 ft | 5 kts | 315° |
| 2026-04-21 10:26 | 30.77150 | 114.19747 | 108 ft | 0 kts | 312° |
| 2026-04-21 10:27 | 30.77152 | 114.19745 | 108 ft | 2 kts | 312° |
| 2026-04-21 10:27 | 30.77166 | 114.19727 | 108 ft | 4 kts | 312° |
| 2026-04-21 10:27 | 30.77193 | 114.19692 | 108 ft | 7 kts | 311° |
| 2026-04-21 10:27 | 30.77233 | 114.19666 | 108 ft | 6 kts | 2° |
| 2026-04-21 10:28 | 30.77276 | 114.19692 | 108 ft | 8 kts | 40° |
| 2026-04-21 10:28 | 30.77321 | 114.19741 | 108 ft | 10 kts | 43° |
| 2026-04-21 10:28 | 30.77476 | 114.19900 | 107 ft | 61 kts | 41° |
| 2026-04-21 10:28 | 30.77967 | 114.20400 | 112 ft | 125 kts | 41° |
| 2026-04-21 10:29 | 30.78758 | 114.21208 | 232 ft | 169 kts | 41° |
| 2026-04-21 10:29 | 30.79491 | 114.22233 | 1065 ft | 164 kts | 68° |
| 2026-04-21 10:29 | 30.79943 | 114.23455 | 1808 ft | 167 kts | 53° |
| 2026-04-21 10:29 | 30.80963 | 114.24185 | 2315 ft | 188 kts | 14° |
| 2026-04-21 10:30 | 30.82306 | 114.24511 | 2701 ft | 216 kts | 12° |
| 2026-04-21 10:30 | 30.83796 | 114.24976 | 3372 ft | 228 kts | 17° |
| 2026-04-21 10:30 | 30.85309 | 114.25606 | 3954 ft | 231 kts | 20° |
| 2026-04-21 10:30 | 30.86881 | 114.25912 | 4728 ft | 235 kts | 351° |
| 2026-04-21 10:31 | 30.88310 | 114.25101 | 5658 ft | 235 kts | 316° |
| 2026-04-21 10:31 | 30.89399 | 114.23681 | 6623 ft | 236 kts | 308° |
| 2026-04-21 10:31 | 30.90431 | 114.22177 | 7531 ft | 239 kts | 308° |
| 2026-04-21 10:31 | 30.91470 | 114.20697 | 8428 ft | 243 kts | 309° |
| 2026-04-21 10:32 | 30.92591 | 114.19154 | 9327 ft | 246 kts | 310° |
| 2026-04-21 10:32 | 30.93720 | 114.17631 | 10164 ft | 250 kts | 310° |
| 2026-04-21 10:32 | 30.94869 | 114.16101 | 10965 ft | 253 kts | 311° |
| 2026-04-21 10:32 | 30.96154 | 114.14679 | 11744 ft | 257 kts | 326° |
| 2026-04-21 10:33 | 30.97788 | 114.13921 | 12485 ft | 261 kts | 353° |
| 2026-04-21 10:33 | 30.99623 | 114.14151 | 12992 ft | 277 kts | 21° |
| 2026-04-21 10:33 | 31.01299 | 114.15405 | 13294 ft | 299 kts | 39° |
| 2026-04-21 10:33 | 31.02895 | 114.17048 | 13607 ft | 319 kts | 42° |
| 2026-04-21 10:34 | 31.04618 | 114.18883 | 13788 ft | 344 kts | 42° |
| 2026-04-21 10:34 | 31.06520 | 114.20714 | 13804 ft | 369 kts | 33° |
| 2026-04-21 10:34 | 31.08822 | 114.22070 | 14176 ft | 381 kts | 21° |
| 2026-04-21 10:34 | 31.11315 | 114.23144 | 14920 ft | 384 kts | 19° |
| 2026-04-21 10:35 | 31.13853 | 114.24182 | 15638 ft | 388 kts | 19° |
| 2026-04-21 10:35 | 31.16412 | 114.25223 | 16303 ft | 392 kts | 19° |
| 2026-04-21 10:35 | 31.19000 | 114.26278 | 16955 ft | 396 kts | 19° |
| 2026-04-21 10:35 | 31.21611 | 114.27345 | 17615 ft | 399 kts | 19° |
| 2026-04-21 10:36 | 31.24248 | 114.28426 | 18245 ft | 403 kts | 19° |
| 2026-04-21 10:36 | 31.26889 | 114.29509 | 18848 ft | 406 kts | 19° |
| 2026-04-21 10:36 | 31.29574 | 114.30612 | 19430 ft | 410 kts | 19° |
| 2026-04-21 10:36 | 31.32289 | 114.31727 | 20004 ft | 414 kts | 19° |
| 2026-04-21 10:37 | 31.34980 | 114.32696 | 20539 ft | 417 kts | 13° |
| 2026-04-21 10:37 | 31.37852 | 114.33198 | 21067 ft | 420 kts | 4° |
| 2026-04-21 10:37 | 31.40771 | 114.33351 | 21583 ft | 423 kts | 1° |
| 2026-04-21 10:37 | 31.43710 | 114.33433 | 22084 ft | 426 kts | 1° |
| 2026-04-21 10:38 | 31.46686 | 114.33509 | 22567 ft | 429 kts | 1° |
| 2026-04-21 10:38 | 31.49684 | 114.33589 | 23048 ft | 433 kts | 1° |
| 2026-04-21 10:38 | 31.52703 | 114.33674 | 23509 ft | 436 kts | 1° |
| 2026-04-21 10:38 | 31.55747 | 114.33761 | 23974 ft | 439 kts | 1° |
| 2026-04-21 10:39 | 31.58814 | 114.33851 | 24415 ft | 442 kts | 1° |
| 2026-04-21 10:39 | 31.61897 | 114.33942 | 24845 ft | 445 kts | 1° |
| 2026-04-21 10:39 | 31.64985 | 114.34033 | 25292 ft | 448 kts | 1° |
| 2026-04-21 10:39 | 31.68073 | 114.34125 | 25684 ft | 451 kts | 1° |
| 2026-04-21 10:40 | 31.71229 | 114.34219 | 26071 ft | 455 kts | 1° |
| 2026-04-21 10:40 | 31.74401 | 114.34313 | 26491 ft | 458 kts | 1° |
| 2026-04-21 10:40 | 31.77591 | 114.34409 | 26890 ft | 461 kts | 1° |
| 2026-04-21 10:40 | 31.80819 | 114.34505 | 27268 ft | 464 kts | 1° |
| 2026-04-21 10:41 | 31.84073 | 114.34603 | 27672 ft | 466 kts | 1° |
| 2026-04-21 10:41 | 31.87324 | 114.34701 | 28071 ft | 469 kts | 1° |
| 2026-04-21 10:41 | 31.90591 | 114.34799 | 28465 ft | 471 kts | 1° |
| 2026-04-21 10:41 | 31.93872 | 114.34898 | 28843 ft | 473 kts | 1° |
| 2026-04-21 10:42 | 31.97168 | 114.34997 | 29202 ft | 475 kts | 1° |
| 2026-04-21 10:42 | 32.00480 | 114.35098 | 29552 ft | 478 kts | 1° |
| 2026-04-21 10:42 | 32.03807 | 114.35198 | 29897 ft | 480 kts | 1° |
| 2026-04-21 10:42 | 32.07161 | 114.35300 | 30225 ft | 483 kts | 1° |
| 2026-04-21 10:43 | 32.10524 | 114.35402 | 30579 ft | 484 kts | 1° |
| 2026-04-21 10:43 | 32.13883 | 114.35504 | 31072 ft | 482 kts | 1° |
| 2026-04-21 10:43 | 32.17220 | 114.35605 | 31541 ft | 480 kts | 1° |
| 2026-04-21 10:43 | 32.20548 | 114.35706 | 31951 ft | 480 kts | 1° |
| 2026-04-21 10:44 | 32.23895 | 114.35808 | 32089 ft | 479 kts | 1° |
| 2026-04-21 10:44 | 32.30508 | 114.36206 | 32100 ft | 475 kts | 4° |
| 2026-04-21 10:45 | 32.37088 | 114.36835 | 32100 ft | 474 kts | 5° |
| 2026-04-21 10:45 | 32.43665 | 114.37484 | 32101 ft | 475 kts | 4° |
| 2026-04-21 10:46 | 32.47969 | 114.37892 | 32102 ft | 485 kts | 4° |
| 2026-04-21 10:46 | 32.54770 | 114.38521 | 32100 ft | 496 kts | 4° |
| 2026-04-21 10:47 | 32.61662 | 114.39151 | 32099 ft | 496 kts | 4° |
| 2026-04-21 10:47 | 32.68538 | 114.39783 | 32100 ft | 496 kts | 4° |
| 2026-04-21 10:48 | 32.75415 | 114.40422 | 32099 ft | 496 kts | 4° |
| 2026-04-21 10:48 | 32.82226 | 114.41057 | 32100 ft | 496 kts | 4° |
| 2026-04-21 10:49 | 32.89099 | 114.41699 | 32100 ft | 496 kts | 4° |
| 2026-04-21 10:49 | 32.95978 | 114.42342 | 32100 ft | 496 kts | 4° |
| 2026-04-21 10:50 | 33.02854 | 114.42985 | 32101 ft | 496 kts | 4° |
| 2026-04-21 10:50 | 33.09727 | 114.43630 | 32100 ft | 496 kts | 4° |
| 2026-04-21 10:51 | 33.16614 | 114.43866 | 32102 ft | 495 kts | 354° |
| 2026-04-21 10:51 | 33.23236 | 114.41928 | 32100 ft | 494 kts | 336° |
| 2026-04-21 10:52 | 33.28965 | 114.37498 | 32101 ft | 493 kts | 316° |
| 2026-04-21 10:52 | 33.33116 | 114.31001 | 32100 ft | 493 kts | 297° |
| 2026-04-21 10:53 | 33.36289 | 114.23741 | 32100 ft | 493 kts | 303° |
| 2026-04-21 10:53 | 33.40858 | 114.17655 | 32100 ft | 494 kts | 321° |
| 2026-04-21 10:54 | 33.46854 | 114.13721 | 32100 ft | 494 kts | 341° |
| 2026-04-21 10:54 | 33.53622 | 114.12486 | 32099 ft | 495 kts | 1° |
| 2026-04-21 10:55 | 33.60498 | 114.12445 | 32100 ft | 495 kts | 353° |
| 2026-04-21 10:55 | 33.67253 | 114.10861 | 32100 ft | 495 kts | 347° |
| 2026-04-21 10:56 | 33.73937 | 114.08869 | 32099 ft | 495 kts | 345° |
| 2026-04-21 10:56 | 33.80604 | 114.06762 | 32101 ft | 495 kts | 345° |
| 2026-04-21 10:57 | 33.87253 | 114.04659 | 32100 ft | 495 kts | 345° |
| 2026-04-21 10:57 | 33.93905 | 114.02572 | 32099 ft | 495 kts | 345° |
| 2026-04-21 10:58 | 34.00572 | 114.00487 | 32100 ft | 495 kts | 345° |
| 2026-04-21 10:58 | 34.07239 | 113.98399 | 32100 ft | 495 kts | 345° |
| 2026-04-21 10:59 | 34.13882 | 113.96315 | 32099 ft | 495 kts | 345° |
| 2026-04-21 10:59 | 34.20552 | 113.94219 | 32099 ft | 495 kts | 345° |
| 2026-04-21 11:00 | 34.27218 | 113.92120 | 32099 ft | 495 kts | 345° |
| 2026-04-21 11:00 | 34.33886 | 113.90017 | 32100 ft | 495 kts | 345° |
| 2026-04-21 11:01 | 34.40553 | 113.87911 | 32101 ft | 495 kts | 345° |
| 2026-04-21 11:01 | 34.47161 | 113.85821 | 32101 ft | 498 kts | 345° |
| 2026-04-21 11:02 | 34.57207 | 113.82591 | 32100 ft | 497 kts | 345° |
| 2026-04-21 11:02 | 34.63853 | 113.80390 | 32101 ft | 496 kts | 344° |
| 2026-04-21 11:03 | 34.70531 | 113.78173 | 32102 ft | 495 kts | 344° |
| 2026-04-21 11:03 | 34.77182 | 113.75968 | 32100 ft | 495 kts | 344° |
| 2026-04-21 11:04 | 34.83773 | 113.73783 | 32100 ft | 495 kts | 344° |
| 2026-04-21 11:04 | 34.90414 | 113.71301 | 32098 ft | 495 kts | 340° |
| 2026-04-21 11:05 | 34.96887 | 113.68415 | 32099 ft | 495 kts | 339° |
| 2026-04-21 11:05 | 35.03295 | 113.65500 | 32100 ft | 495 kts | 339° |
| 2026-04-21 11:06 | 35.09749 | 113.62611 | 32100 ft | 495 kts | 340° |
| 2026-04-21 11:06 | 35.16224 | 113.59742 | 32100 ft | 495 kts | 340° |
| 2026-04-21 11:07 | 35.22704 | 113.56874 | 32100 ft | 495 kts | 340° |
| 2026-04-21 11:07 | 35.29179 | 113.54003 | 32099 ft | 495 kts | 340° |
| 2026-04-21 11:08 | 35.35650 | 113.51127 | 32101 ft | 495 kts | 340° |
| 2026-04-21 11:08 | 35.42141 | 113.48237 | 32101 ft | 495 kts | 340° |
| 2026-04-21 11:09 | 35.48622 | 113.45355 | 32101 ft | 496 kts | 340° |
| 2026-04-21 11:09 | 35.55092 | 113.42490 | 32101 ft | 499 kts | 340° |
| 2026-04-21 11:10 | 35.61649 | 113.39583 | 32101 ft | 502 kts | 340° |
| 2026-04-21 11:10 | 35.68228 | 113.36654 | 32100 ft | 504 kts | 340° |
| 2026-04-21 11:11 | 35.74825 | 113.33709 | 32100 ft | 504 kts | 340° |
| 2026-04-21 11:11 | 35.81414 | 113.30762 | 32100 ft | 504 kts | 340° |
| 2026-04-21 11:12 | 35.86886 | 113.28313 | 32101 ft | 504 kts | 340° |
| 2026-04-21 11:12 | 35.93530 | 113.25346 | 32100 ft | 504 kts | 340° |
| 2026-04-21 11:13 | 35.99937 | 113.22482 | 32099 ft | 504 kts | 340° |
| 2026-04-21 11:13 | 36.06502 | 113.19541 | 32099 ft | 503 kts | 340° |
| 2026-04-21 11:14 | 36.13071 | 113.16593 | 32101 ft | 502 kts | 340° |
| 2026-04-21 11:14 | 36.19633 | 113.13643 | 32099 ft | 502 kts | 340° |
| 2026-04-21 11:15 | 36.26271 | 113.11008 | 32101 ft | 501 kts | 344° |
| 2026-04-21 11:15 | 36.32972 | 113.08777 | 32098 ft | 490 kts | 345° |
| 2026-04-21 11:16 | 36.36243 | 113.07710 | 31990 ft | 485 kts | 345° |
| 2026-04-21 11:16 | 36.39506 | 113.06647 | 31748 ft | 485 kts | 345° |
| 2026-04-21 11:16 | 36.42783 | 113.05580 | 31498 ft | 486 kts | 345° |
| 2026-04-21 11:16 | 36.46036 | 113.04521 | 31251 ft | 487 kts | 345° |
| 2026-04-21 11:17 | 36.49286 | 113.03462 | 31001 ft | 488 kts | 345° |
| 2026-04-21 11:17 | 36.52560 | 113.02395 | 30754 ft | 488 kts | 345° |
| 2026-04-21 11:17 | 36.55861 | 113.01318 | 30503 ft | 488 kts | 345° |
| 2026-04-21 11:17 | 36.59103 | 113.00259 | 30252 ft | 488 kts | 345° |
| 2026-04-21 11:18 | 36.62385 | 112.99186 | 30011 ft | 487 kts | 345° |
| 2026-04-21 11:18 | 36.65655 | 112.98116 | 29732 ft | 484 kts | 345° |
| 2026-04-21 11:18 | 36.68880 | 112.97061 | 29224 ft | 477 kts | 345° |
| 2026-04-21 11:18 | 36.72079 | 112.96013 | 28581 ft | 474 kts | 345° |
| 2026-04-21 11:19 | 36.75267 | 112.94967 | 27912 ft | 473 kts | 345° |
| 2026-04-21 11:19 | 36.78441 | 112.93925 | 27240 ft | 471 kts | 345° |
| 2026-04-21 11:19 | 36.81538 | 112.92908 | 26566 ft | 467 kts | 345° |
| 2026-04-21 11:19 | 36.84719 | 112.91862 | 25879 ft | 463 kts | 345° |
| 2026-04-21 11:20 | 36.87822 | 112.90840 | 25204 ft | 459 kts | 345° |
| 2026-04-21 11:20 | 36.90898 | 112.89827 | 24529 ft | 455 kts | 345° |
| 2026-04-21 11:20 | 36.93927 | 112.88829 | 23930 ft | 450 kts | 345° |
| 2026-04-21 11:20 | 36.96943 | 112.87834 | 23646 ft | 437 kts | 345° |
| 2026-04-21 11:21 | 36.99824 | 112.86883 | 23599 ft | 419 kts | 345° |
| 2026-04-21 11:21 | 37.02588 | 112.85970 | 23468 ft | 405 kts | 345° |
| 2026-04-21 11:21 | 37.05293 | 112.85077 | 23070 ft | 399 kts | 345° |
| 2026-04-21 11:21 | 37.07931 | 112.84215 | 22598 ft | 396 kts | 345° |
| 2026-04-21 11:22 | 37.10579 | 112.83353 | 22107 ft | 393 kts | 345° |
| 2026-04-21 11:22 | 37.13214 | 112.82496 | 21622 ft | 390 kts | 345° |
| 2026-04-21 11:22 | 37.15816 | 112.81648 | 21114 ft | 387 kts | 345° |
| 2026-04-21 11:22 | 37.18434 | 112.80794 | 20606 ft | 385 kts | 345° |
| 2026-04-21 11:23 | 37.21016 | 112.79952 | 20095 ft | 382 kts | 345° |
| 2026-04-21 11:23 | 37.23574 | 112.79117 | 19615 ft | 379 kts | 345° |
| 2026-04-21 11:23 | 37.26092 | 112.78180 | 19099 ft | 376 kts | 338° |
| 2026-04-21 11:23 | 37.28361 | 112.76637 | 18598 ft | 373 kts | 322° |
| 2026-04-21 11:24 | 37.30213 | 112.74369 | 18098 ft | 369 kts | 309° |
| 2026-04-21 11:24 | 37.31793 | 112.71838 | 17607 ft | 366 kts | 307° |
| 2026-04-21 11:24 | 37.33305 | 112.69302 | 17115 ft | 363 kts | 306° |
| 2026-04-21 11:24 | 37.34813 | 112.66764 | 16598 ft | 361 kts | 307° |
| 2026-04-21 11:25 | 37.36314 | 112.64248 | 16120 ft | 358 kts | 307° |
| 2026-04-21 11:25 | 37.37800 | 112.61764 | 15641 ft | 355 kts | 307° |
| 2026-04-21 11:25 | 37.39279 | 112.59296 | 15155 ft | 351 kts | 307° |
| 2026-04-21 11:25 | 37.40743 | 112.56854 | 14664 ft | 348 kts | 307° |
| 2026-04-21 11:26 | 37.42198 | 112.54428 | 14169 ft | 346 kts | 307° |
| 2026-04-21 11:26 | 37.43637 | 112.52026 | 13859 ft | 343 kts | 307° |
| 2026-04-21 11:26 | 37.45171 | 112.49740 | 13801 ft | 340 kts | 316° |
| 2026-04-21 11:26 | 37.47029 | 112.48020 | 13655 ft | 327 kts | 332° |
| 2026-04-21 11:27 | 37.49183 | 112.47085 | 13029 ft | 330 kts | 350° |
| 2026-04-21 11:27 | 37.51479 | 112.47054 | 12395 ft | 332 kts | 8° |
| 2026-04-21 11:27 | 37.53657 | 112.47905 | 11760 ft | 325 kts | 26° |
| 2026-04-21 11:27 | 37.55545 | 112.49403 | 11136 ft | 317 kts | 36° |
| 2026-04-21 11:28 | 37.57283 | 112.51048 | 10638 ft | 306 kts | 37° |
| 2026-04-21 11:28 | 37.58933 | 112.52640 | 10323 ft | 291 kts | 37° |
| 2026-04-21 11:28 | 37.60462 | 112.54208 | 10088 ft | 276 kts | 44° |
| 2026-04-21 11:28 | 37.61565 | 112.56099 | 9854 ft | 262 kts | 65° |
| 2026-04-21 11:29 | 37.62006 | 112.58244 | 9644 ft | 250 kts | 87° |
| 2026-04-21 11:29 | 37.61792 | 112.60393 | 9253 ft | 246 kts | 109° |
| 2026-04-21 11:29 | 37.60999 | 112.62293 | 8800 ft | 245 kts | 125° |
| 2026-04-21 11:29 | 37.59991 | 112.64004 | 8499 ft | 243 kts | 128° |
| 2026-04-21 11:30 | 37.58952 | 112.65689 | 8193 ft | 242 kts | 128° |
| 2026-04-21 11:30 | 37.57932 | 112.67350 | 8017 ft | 238 kts | 128° |
| 2026-04-21 11:30 | 37.56933 | 112.68991 | 7885 ft | 234 kts | 128° |
| 2026-04-21 11:30 | 37.55950 | 112.70613 | 7849 ft | 232 kts | 127° |
| 2026-04-21 11:31 | 37.54973 | 112.72231 | 7674 ft | 232 kts | 127° |
| 2026-04-21 11:31 | 37.53997 | 112.73850 | 7434 ft | 232 kts | 127° |
| 2026-04-21 11:31 | 37.53083 | 112.75411 | 7191 ft | 232 kts | 123° |
| 2026-04-21 11:31 | 37.52492 | 112.77352 | 6936 ft | 231 kts | 96° |
| 2026-04-21 11:32 | 37.52763 | 112.79320 | 6676 ft | 229 kts | 63° |
| 2026-04-21 11:32 | 37.53767 | 112.80827 | 6421 ft | 223 kts | 40° |
| 2026-04-21 11:32 | 37.54981 | 112.82018 | 6178 ft | 219 kts | 36° |
| 2026-04-21 11:32 | 37.56202 | 112.83140 | 5937 ft | 215 kts | 36° |
| 2026-04-21 11:33 | 37.57371 | 112.84215 | 5876 ft | 201 kts | 35° |
| 2026-04-21 11:33 | 37.58533 | 112.85014 | 5869 ft | 195 kts | 18° |
| 2026-04-21 11:33 | 37.59899 | 112.85050 | 5560 ft | 195 kts | 340° |
| 2026-04-21 11:33 | 37.61083 | 112.84253 | 5368 ft | 191 kts | 322° |
| 2026-04-21 11:34 | 37.62005 | 112.83097 | 5681 ft | 184 kts | 309° |
| 2026-04-21 11:34 | 37.62775 | 112.81833 | 5822 ft | 180 kts | 306° |
| 2026-04-21 11:34 | 37.63523 | 112.80578 | 5607 ft | 178 kts | 307° |
| 2026-04-21 11:34 | 37.64257 | 112.79358 | 5296 ft | 171 kts | 307° |
| 2026-04-21 11:35 | 37.64960 | 112.78186 | 5028 ft | 163 kts | 307° |
| 2026-04-21 11:35 | 37.65623 | 112.77079 | 4837 ft | 153 kts | 307° |
| 2026-04-21 11:35 | 37.66259 | 112.76017 | 4609 ft | 151 kts | 307° |
| 2026-04-21 11:35 | 37.66894 | 112.74959 | 4406 ft | 151 kts | 307° |
| 2026-04-21 11:36 | 37.67527 | 112.73899 | 4201 ft | 151 kts | 306° |
| 2026-04-21 11:36 | 37.68162 | 112.72838 | 3998 ft | 151 kts | 307° |
| 2026-04-21 11:36 | 37.68794 | 112.71797 | 3810 ft | 151 kts | 307° |
| 2026-04-21 11:36 | 37.69430 | 112.70743 | 3599 ft | 151 kts | 306° |
| 2026-04-21 11:37 | 37.70046 | 112.69674 | 3405 ft | 150 kts | 306° |
| 2026-04-21 11:37 | 37.70677 | 112.68628 | 3193 ft | 149 kts | 307° |
| 2026-04-21 11:37 | 37.71307 | 112.67589 | 3029 ft | 149 kts | 307° |
| 2026-04-21 11:37 | 37.71928 | 112.66544 | 2821 ft | 149 kts | 307° |
| 2026-04-21 11:38 | 37.72547 | 112.65506 | 2642 ft | 148 kts | 307° |
| 2026-04-21 11:38 | 37.73134 | 112.64527 | 2588 ft | 120 kts | 305° |
| 2026-04-21 11:38 | 37.73515 | 112.63877 | 2580 ft | 63 kts | 307° |
| 2026-04-21 11:38 | 37.73670 | 112.63618 | 2580 ft | 21 kts | 307° |
| 2026-04-21 11:39 | 37.73784 | 112.63509 | 2576 ft | 22 kts | 338° |
| 2026-04-21 11:39 | 37.73927 | 112.63431 | 2574 ft | 22 kts | 335° |
| 2026-04-21 11:39 | 37.74045 | 112.63338 | 2575 ft | 20 kts | 309° |
| 2026-04-21 11:39 | 37.74119 | 112.63214 | 2572 ft | 17 kts | 307° |
| 2026-04-21 11:40 | 37.74194 | 112.63088 | 2568 ft | 19 kts | 307° |
| 2026-04-21 11:40 | 37.74276 | 112.62953 | 2572 ft | 19 kts | 306° |
| 2026-04-21 11:40 | 37.74361 | 112.62808 | 2568 ft | 22 kts | 306° |
| 2026-04-21 11:40 | 37.74454 | 112.62647 | 2569 ft | 24 kts | 306° |
| 2026-04-21 11:41 | 37.74546 | 112.62488 | 2568 ft | 17 kts | 306° |
| 2026-04-21 11:41 | 37.74619 | 112.62453 | 2567 ft | 12 kts | 25° |
| 2026-04-21 11:41 | 37.74691 | 112.62519 | 2567 ft | 13 kts | 37° |
| 2026-04-21 11:41 | 37.74769 | 112.62592 | 2567 ft | 15 kts | 36° |
| 2026-04-21 11:42 | 37.74869 | 112.62583 | 2563 ft | 17 kts | 336° |
| 2026-04-21 11:42 | 37.74988 | 112.62519 | 2561 ft | 19 kts | 339° |
| 2026-04-21 11:42 | 37.75109 | 112.62464 | 2561 ft | 19 kts | 341° |
| 2026-04-21 11:42 | 37.75196 | 112.62351 | 2563 ft | 19 kts | 307° |
| 2026-04-21 11:43 | 37.75268 | 112.62241 | 2565 ft | 12 kts | 329° |
| 2026-04-21 11:43 | 37.75339 | 112.62274 | 2565 ft | 11 kts | 37° |
| 2026-04-21 11:43 | 37.75411 | 112.62311 | 2564 ft | 11 kts | 343° |
| 2026-04-21 11:43 | 37.75461 | 112.62239 | 2562 ft | 10 kts | 294° |
| 2026-04-21 11:44 | 37.75433 | 112.62186 | 2562 ft | 7 kts | 217° |
| 2026-04-21 11:44 | 37.75412 | 112.62166 | 2562 ft | 1 kts | 217° |
| 2026-04-21 11:44 | 37.75411 | 112.62165 | 2562 ft | 0 kts | 217° |